This is the latest recevied weather packets stored in our database for station/object WK7G. If no packets are shown the sender has not sent any weather packets the latest 10 day(s).
| Time | Temp. | Humidity | Pressure | Rain* | Wind** | Luminosity | Snow |
|---|---|---|---|---|---|---|---|
| 1777865581 | 9.44° C | 42% | 1005.5 hPa | 0 mm | - | 0 W/m² | - |
| 1777865278 | 10° C | 43% | 1005.5 hPa | 0 mm | - | 0 W/m² | - |
| 1777864975 | 10° C | 43% | 1005.6 hPa | 0 mm | - | 0 W/m² | - |
| 1777864671 | 9.44° C | 45% | 1005.6 hPa | 0 mm | - | 0 W/m² | - |
| 1777864369 | 9.44° C | 43% | 1005.4 hPa | 0 mm | - | 0 W/m² | - |
| 1777864064 | 8.89° C | 50% | 1005.5 hPa | 0 mm | - | 0 W/m² | - |
| 1777863762 | 8.89° C | 51% | 1005.5 hPa | 0 mm | - | 0 W/m² | - |
| 1777863458 | 8.89° C | 51% | 1005.4 hPa | 0 mm | - | 0 W/m² | - |
| 1777863156 | 8.33° C | 53% | 1005.2 hPa | 0 mm | - | 0 W/m² | - |
| 1777862852 | 10° C | 46% | 1005.2 hPa | 0 mm | - | 0 W/m² | - |
| 1777862549 | 9.44° C | 44% | 1005.1 hPa | 0 mm | - | 0 W/m² | - |
| 1777862246 | 8.89° C | 48% | 1005.5 hPa | 0 mm | - | 0 W/m² | - |
| 1777861942 | 9.44° C | 47% | 1005.1 hPa | 0 mm | - | 1 W/m² | - |
| 1777861638 | 10.56° C | 47% | 1005.4 hPa | 0 mm | - | 2 W/m² | - |
| 1777861335 | 12.78° C | 39% | 1005.2 hPa | 0 mm | - | 5 W/m² | - |
| 1777861032 | 13.89° C | 38% | 1005.4 hPa | 0 mm | - | 7 W/m² | - |
| 1777860729 | 14.44° C | 33% | 1005.2 hPa | 0 mm | - | 10 W/m² | - |
| 1777860426 | 15° C | 32% | 1005.2 hPa | 0 mm | - | 14 W/m² | - |
| 1777860121 | 15° C | 35% | 1005.2 hPa | 0 mm | - | 17 W/m² | - |
| 1777859818 | 16.11° C | 33% | 1005.2 hPa | 0 mm | - | 19 W/m² | - |
| 1777859514 | 16.67° C | 30% | 1004.9 hPa | 0 mm | - | 23 W/m² | - |
| 1777859210 | 16.67° C | 32% | 1005 hPa | 0 mm | - | 25 W/m² | - |
| 1777858908 | 16.67° C | 29% | 1005.2 hPa | 0 mm | - | 26 W/m² | - |
| 1777858605 | 17.22° C | 29% | 1005.4 hPa | 0 mm | - | 29 W/m² | - |
| 1777858302 | 17.78° C | 28% | 1005.2 hPa | 0 mm | - | 32 W/m² | - |
* Rain latest hour (hover to see other rain measurements)
** Current wind speed in m/s (hover to see current wind gust speed)